Time;durP1;ratioP1;P1;durP2;ratioP2;P2;SDS_P1;SDS_P2;PMS_P1;PMS_P2;Temp;Humidity;BMP_temperature;BMP_pressure;BME280_temperature;BME280_humidity;BME280_pressure;Samples;Min_cycle;Max_cycle;Signal;HPM_P1;HPM_P2
2021/12/18 00:00:14;;;;;;;2.83;1.20;;;5.70;99.90;;;;;;5045229;28;20307;-95
2021/12/18 00:02:46;;;;;;;1.40;0.80;;;5.60;99.90;;;;;;5061103;28;20243;-94
2021/12/18 00:05:17;;;;;;;2.23;1.00;;;5.60;99.90;;;;;;5060598;28;20209;-94
2021/12/18 00:07:51;;;;;;;2.80;1.13;;;5.50;99.90;;;;;;5062399;28;20258;-94
2021/12/18 00:10:23;;;;;;;1.33;0.90;;;5.50;99.90;;;;;;5058336;28;20299;-94
2021/12/18 00:12:55;;;;;;;2.40;0.80;;;5.50;99.90;;;;;;5060891;28;20246;-94
2021/12/18 00:15:27;;;;;;;3.37;1.10;;;5.40;99.90;;;;;;5059838;28;20237;-94
2021/12/18 00:17:58;;;;;;;2.90;0.87;;;5.40;99.90;;;;;;5059125;28;20621;-94
2021/12/18 00:20:30;;;;;;;2.70;1.20;;;5.40;99.90;;;;;;5061383;28;20316;-94
2021/12/18 00:23:03;;;;;;;3.13;1.10;;;5.40;99.90;;;;;;5060327;28;20215;-94
2021/12/18 00:25:34;;;;;;;2.60;1.03;;;5.40;99.90;;;;;;5059440;28;20315;-94
2021/12/18 00:28:06;;;;;;;1.97;1.03;;;5.40;99.90;;;;;;5059857;28;20205;-93
2021/12/18 00:30:39;;;;;;;2.03;1.10;;;5.40;99.90;;;;;;5041495;28;20213;-94
2021/12/18 00:33:11;;;;;;;2.37;1.10;;;5.40;99.90;;;;;;5060699;28;20211;-94
2021/12/18 00:35:42;;;;;;;4.70;1.40;;;5.40;99.90;;;;;;5062002;28;20201;-94
2021/12/18 00:38:15;;;;;;;3.03;1.30;;;5.40;99.90;;;;;;5060222;28;20256;-93
2021/12/18 00:40:58;;;;;;;3.07;1.60;;;5.40;99.90;;;;;;5057791;28;20288;-94
2021/12/18 00:43:32;;;;;;;3.63;1.40;;;5.30;99.90;;;;;;5058990;28;20287;-93
2021/12/18 00:46:04;;;;;;;2.63;1.50;;;5.30;99.90;;;;;;5057185;28;20703;-95
2021/12/18 00:48:36;;;;;;;5.43;1.70;;;5.30;99.90;;;;;;5059995;28;20265;-94
2021/12/18 00:51:09;;;;;;;2.73;1.50;;;5.30;99.90;;;;;;5059639;28;20211;-94
2021/12/18 00:53:41;;;;;;;3.47;1.37;;;5.30;99.90;;;;;;5060255;28;20205;-94
2021/12/18 00:56:12;;;;;;;1.77;1.30;;;5.30;99.90;;;;;;5057387;28;20272;-94
2021/12/18 00:58:43;;;;;;;4.03;1.40;;;5.30;99.90;;;;;;5061289;28;20211;-95
2021/12/18 01:01:14;;;;;;;4.73;1.87;;;5.30;99.90;;;;;;5063838;28;20232;-93
2021/12/18 01:03:47;;;;;;;2.63;1.90;;;5.30;99.90;;;;;;5061840;28;20436;-94
2021/12/18 01:06:20;;;;;;;5.47;2.23;;;5.20;99.90;;;;;;5061812;28;20265;-94
2021/12/18 01:08:56;;;;;;;3.43;1.63;;;5.20;99.90;;;;;;5058472;28;20283;-94
2021/12/18 01:11:40;;;;;;;4.77;1.47;;;5.10;99.90;;;;;;5062757;28;20216;-94
2021/12/18 01:22:50;;;;;;;2.47;1.50;;;5.10;99.90;;;;;;5062153;28;20770;-94
2021/12/18 01:25:23;;;;;;;4.23;1.87;;;5.10;99.90;;;;;;5060777;28;20239;-93
2021/12/18 01:27:54;;;;;;;3.47;2.10;;;5.10;99.90;;;;;;5061275;28;20207;-93
2021/12/18 01:30:25;;;;;;;3.30;1.67;;;5.10;99.90;;;;;;5067957;28;20200;-94
2021/12/18 01:32:57;;;;;;;3.37;1.60;;;5.10;99.90;;;;;;5076409;28;20215;-94
2021/12/18 01:35:28;;;;;;;4.47;1.53;;;5.10;99.90;;;;;;5076482;28;20203;-95
2021/12/18 01:37:59;;;;;;;5.13;1.80;;;5.10;99.90;;;;;;5071217;28;20202;-94
2021/12/18 01:40:33;;;;;;;2.60;1.70;;;5.10;99.90;;;;;;5063967;28;20223;-94
2021/12/18 01:46:07;;;;;;;2.73;1.47;;;5.00;99.90;;;;;;5059669;28;20231;-94
2021/12/18 01:51:34;;;;;;;3.37;1.20;;;5.00;99.90;;;;;;5039089;28;20215;-94
2021/12/18 01:54:05;;;;;;;2.90;1.23;;;5.00;99.90;;;;;;5063112;28;20263;-94
2021/12/18 01:56:39;;;;;;;3.80;1.20;;;5.00;99.90;;;;;;5061651;28;20297;-94
2021/12/18 01:59:10;;;;;;;1.30;0.83;;;5.10;99.90;;;;;;5062855;28;20208;-93
2021/12/18 02:01:41;;;;;;;2.57;1.17;;;5.10;99.90;;;;;;5064829;28;20319;-93
2021/12/18 02:04:12;;;;;;;2.77;1.10;;;5.10;99.90;;;;;;5064307;28;20212;-93
2021/12/18 02:06:43;;;;;;;5.83;1.37;;;5.00;99.90;;;;;;5061715;28;20232;-93
2021/12/18 02:09:15;;;;;;;1.90;1.07;;;5.00;99.90;;;;;;5062351;28;20204;-93
2021/12/18 02:11:48;;;;;;;2.43;1.10;;;5.00;99.90;;;;;;5063896;28;20211;-92
2021/12/18 02:14:33;;;;;;;1.80;1.10;;;5.00;99.90;;;;;;5062008;28;20205;-93
2021/12/18 02:19:59;;;;;;;1.97;0.93;;;4.90;99.90;;;;;;5061182;28;20212;-93
2021/12/18 02:22:32;;;;;;;3.80;1.47;;;4.90;99.90;;;;;;5060994;28;20234;-93
2021/12/18 02:27:34;;;;;;;2.67;1.13;;;4.80;99.90;;;;;;5039750;28;20328;-94
2021/12/18 02:30:08;;;;;;;2.43;1.30;;;4.80;99.90;;;;;;5041607;28;20522;-94
2021/12/18 02:32:39;;;;;;;1.43;0.97;;;4.90;99.90;;;;;;5041512;28;20657;-93
2021/12/18 02:35:15;;;;;;;4.30;1.60;;;4.80;99.90;;;;;;5042149;28;20216;-94
2021/12/18 02:37:49;;;;;;;1.67;1.00;;;4.80;99.90;;;;;;5039705;28;20290;-93
2021/12/18 02:43:17;;;;;;;2.37;1.13;;;4.70;99.90;;;;;;5041700;28;20753;-92
2021/12/18 02:45:48;;;;;;;3.13;1.10;;;4.60;99.90;;;;;;5041933;28;20217;-92
2021/12/18 02:48:20;;;;;;;2.20;1.33;;;4.70;99.90;;;;;;5042105;28;20215;-92
2021/12/18 02:50:51;;;;;;;1.93;1.30;;;4.70;99.90;;;;;;5042832;28;20208;-94
2021/12/18 02:53:25;;;;;;;4.87;1.30;;;4.70;99.90;;;;;;5043384;28;20204;-93
2021/12/18 02:55:57;;;;;;;3.00;0.90;;;4.70;99.90;;;;;;5045171;28;20224;-93
2021/12/18 02:58:29;;;;;;;2.90;1.30;;;4.70;99.90;;;;;;5051494;28;20308;-92
2021/12/18 03:01:01;;;;;;;3.70;1.33;;;4.60;99.90;;;;;;5052696;28;20209;-94
2021/12/18 03:03:36;;;;;;;5.40;1.50;;;4.60;99.90;;;;;;5050202;28;20236;-92
2021/12/18 03:06:20;;;;;;;2.77;1.63;;;4.50;99.90;;;;;;5041957;28;20281;-94
2021/12/18 03:09:12;;;;;;;3.10;1.70;;;4.40;99.90;;;;;;5042022;28;20311;-94
2021/12/18 03:23:13;;;;;;;4.97;2.10;;;4.30;99.90;;;;;;5029688;28;20232;-93
2021/12/18 03:25:54;;;;;;;3.80;1.97;;;4.30;99.90;;;;;;5039267;28;20241;-93
2021/12/18 03:28:26;;;;;;;3.70;2.60;;;4.20;99.90;;;;;;5039039;28;20262;-93
2021/12/18 03:30:57;;;;;;;4.60;2.30;;;4.20;99.90;;;;;;5040676;28;20296;-94
2021/12/18 03:33:29;;;;;;;6.47;2.47;;;4.20;99.90;;;;;;5040067;28;20243;-93
2021/12/18 03:36:00;;;;;;;3.93;2.30;;;4.20;99.90;;;;;;5040876;28;20205;-95
2021/12/18 03:38:31;;;;;;;7.07;2.57;;;4.20;99.90;;;;;;5041011;28;20657;-94
2021/12/18 03:41:05;;;;;;;3.03;2.20;;;4.20;99.90;;;;;;5040836;28;20201;-93
2021/12/18 03:43:36;;;;;;;3.20;1.70;;;4.10;99.90;;;;;;5048831;28;20221;-95
2021/12/18 03:46:08;;;;;;;4.00;2.00;;;4.10;99.90;;;;;;5058180;28;20194;-95
2021/12/18 03:48:40;;;;;;;4.13;2.30;;;4.10;99.90;;;;;;5057680;28;20282;-95
2021/12/18 03:51:12;;;;;;;6.00;2.13;;;4.20;99.90;;;;;;5050839;28;20205;-94
2021/12/18 03:53:43;;;;;;;4.07;1.63;;;4.10;99.90;;;;;;5056291;28;20208;-93
2021/12/18 03:56:17;;;;;;;5.23;1.63;;;4.10;99.90;;;;;;5041858;28;20244;-93
2021/12/18 03:58:48;;;;;;;2.80;1.53;;;4.10;99.90;;;;;;5039502;28;20205;-94
2021/12/18 04:01:19;;;;;;;5.63;3.47;;;4.10;99.90;;;;;;5042011;28;20296;-93
2021/12/18 04:03:50;;;;;;;7.13;4.83;;;3.90;99.90;;;;;;5038876;28;20311;-94
2021/12/18 04:06:22;;;;;;;6.03;4.33;;;3.90;99.90;;;;;;5037678;28;20219;-94
2021/12/18 04:08:53;;;;;;;6.20;3.63;;;3.80;99.90;;;;;;5038402;28;20212;-94
2021/12/18 04:11:26;;;;;;;5.90;3.77;;;3.70;99.90;;;;;;5040847;28;20215;-94
2021/12/18 04:13:58;;;;;;;6.77;2.13;;;3.70;99.90;;;;;;5038652;28;20251;-94
2021/12/18 04:16:29;;;;;;;2.43;2.00;;;3.70;99.90;;;;;;5037480;28;20205;-94
2021/12/18 04:19:01;;;;;;;2.53;1.53;;;3.60;99.90;;;;;;5038918;28;20292;-93
2021/12/18 04:21:33;;;;;;;2.10;1.20;;;3.60;99.90;;;;;;5038042;28;20243;-94
2021/12/18 04:24:05;;;;;;;2.17;1.10;;;3.50;99.90;;;;;;5038661;28;20271;-94
2021/12/18 04:26:38;;;;;;;1.17;0.90;;;3.50;99.90;;;;;;5037227;28;20244;-94
2021/12/18 04:29:09;;;;;;;1.73;1.20;;;3.50;99.90;;;;;;5038906;28;20241;-94
2021/12/18 04:31:43;;;;;;;3.70;1.20;;;3.50;99.90;;;;;;5038924;28;20236;-95
2021/12/18 04:34:14;;;;;;;2.47;0.93;;;3.50;99.90;;;;;;5038230;28;20736;-95
2021/12/18 04:36:44;;;;;;;1.57;0.77;;;3.50;99.90;;;;;;5038301;28;20272;-96
2021/12/18 04:39:16;;;;;;;1.23;0.70;;;3.50;99.90;;;;;;5038122;28;20251;-94
2021/12/18 04:41:51;;;;;;;1.70;0.80;;;3.40;99.90;;;;;;5038278;28;20217;-94
2021/12/18 04:44:23;;;;;;;1.90;1.10;;;3.40;99.90;;;;;;5040876;28;20264;-94
2021/12/18 04:46:54;;;;;;;3.67;0.90;;;3.40;99.90;;;;;;5041365;28;20208;-95
2021/12/18 04:49:28;;;;;;;1.63;1.03;;;3.40;99.90;;;;;;5039110;28;20231;-95
2021/12/18 04:51:59;;;;;;;1.23;1.10;;;3.20;99.90;;;;;;5040724;28;20213;-95
2021/12/18 04:54:30;;;;;;;0.90;0.80;;;3.10;99.90;;;;;;5039581;28;20209;-95
2021/12/18 04:57:04;;;;;;;3.23;0.80;;;3.20;99.90;;;;;;5038379;28;20209;-95
2021/12/18 04:59:42;;;;;;;3.20;0.90;;;3.10;99.90;;;;;;5018306;28;20566;-95
2021/12/18 05:02:17;;;;;;;1.50;0.90;;;3.10;99.90;;;;;;5017365;28;20273;-90
2021/12/18 05:04:49;;;;;;;1.30;0.90;;;3.00;99.90;;;;;;5018222;28;20231;-94
2021/12/18 05:07:20;;;;;;;1.10;1.00;;;3.00;99.90;;;;;;5038162;23;20259;-94
2021/12/18 05:09:53;;;;;;;0.70;0.70;;;3.00;99.90;;;;;;5037836;28;20244;-96
2021/12/18 05:12:26;;;;;;;0.83;0.80;;;2.90;99.90;;;;;;5039762;28;20236;-96
2021/12/18 05:14:59;;;;;;;1.17;1.00;;;2.90;99.90;;;;;;5038019;28;20232;-95
2021/12/18 05:17:30;;;;;;;2.63;1.10;;;2.90;99.90;;;;;;5037779;28;20250;-94
2021/12/18 05:20:01;;;;;;;1.70;0.97;;;2.90;99.90;;;;;;5037195;28;20232;-94
2021/12/18 05:22:32;;;;;;;2.03;0.90;;;2.90;99.90;;;;;;5039123;28;20215;-95
2021/12/18 05:25:04;;;;;;;2.60;0.97;;;2.90;99.90;;;;;;5036092;28;20644;-95
2021/12/18 05:27:39;;;;;;;1.40;1.10;;;2.90;99.90;;;;;;5036255;28;20209;-94
2021/12/18 05:30:13;;;;;;;2.47;1.07;;;2.80;99.90;;;;;;5040151;28;20235;-94
2021/12/18 05:32:44;;;;;;;2.73;1.00;;;2.80;99.90;;;;;;5053396;28;20197;-94
2021/12/18 05:35:16;;;;;;;1.60;0.90;;;2.90;99.90;;;;;;5051903;28;20201;-95
2021/12/18 05:37:51;;;;;;;2.07;1.10;;;2.80;99.90;;;;;;5041767;28;20307;-95
2021/12/18 05:40:25;;;;;;;2.33;1.03;;;2.80;99.90;;;;;;5038998;28;20692;-94
2021/12/18 05:42:58;;;;;;;3.37;1.23;;;2.80;99.90;;;;;;5039376;28;20232;-96
2021/12/18 05:45:29;;;;;;;2.27;1.30;;;2.80;99.90;;;;;;5038574;28;20205;-94
2021/12/18 05:48:00;;;;;;;2.73;1.37;;;2.80;99.90;;;;;;5038004;28;20233;-95
2021/12/18 05:50:32;;;;;;;1.87;1.13;;;2.80;99.90;;;;;;5038025;28;20241;-95
2021/12/18 05:53:03;;;;;;;1.10;1.00;;;2.90;99.90;;;;;;5038360;28;20623;-96
2021/12/18 05:55:34;;;;;;;5.00;1.40;;;2.90;99.90;;;;;;5038323;28;20304;-96
2021/12/18 05:58:07;;;;;;;2.87;1.20;;;2.90;99.90;;;;;;5038430;28;20224;-95
2021/12/18 06:00:39;;;;;;;1.77;1.40;;;2.90;99.90;;;;;;5042705;28;20219;-93
2021/12/18 06:03:10;;;;;;;2.93;1.17;;;2.90;99.90;;;;;;5056518;28;20231;-94
2021/12/18 06:05:41;;;;;;;1.57;1.40;;;2.90;99.90;;;;;;5056463;28;20240;-95
2021/12/18 06:08:14;;;;;;;3.00;1.27;;;2.90;99.90;;;;;;5045483;28;20209;-94
2021/12/18 06:10:45;;;;;;;1.77;1.20;;;2.90;99.90;;;;;;5048570;28;20221;-92
2021/12/18 06:13:19;;;;;;;1.67;1.33;;;2.90;99.90;;;;;;5040181;28;20276;-93
2021/12/18 06:15:50;;;;;;;1.53;1.27;;;2.90;99.90;;;;;;5036964;28;20217;-95
2021/12/18 06:18:21;;;;;;;1.60;1.07;;;2.90;99.90;;;;;;5037706;28;20231;-95
2021/12/18 06:20:53;;;;;;;1.60;1.20;;;2.90;99.90;;;;;;5037561;28;20233;-95
2021/12/18 06:23:25;;;;;;;1.30;1.20;;;2.90;99.90;;;;;;5021348;28;20224;-95
2021/12/18 06:25:56;;;;;;;2.73;1.20;;;2.90;99.90;;;;;;5036646;28;20273;-94
2021/12/18 06:28:29;;;;;;;1.50;1.10;;;3.00;99.90;;;;;;5036746;28;20208;-95
2021/12/18 06:31:02;;;;;;;1.60;1.30;;;3.00;99.90;;;;;;5038120;28;20205;-94
2021/12/18 06:33:34;;;;;;;3.00;1.60;;;3.00;99.90;;;;;;5038022;28;20251;-95
2021/12/18 06:36:07;;;;;;;2.17;1.20;;;3.00;99.90;;;;;;5039952;28;20201;-94
2021/12/18 06:38:37;;;;;;;1.60;1.10;;;3.00;99.90;;;;;;5042181;28;20227;-95
2021/12/18 06:41:09;;;;;;;1.50;1.23;;;3.10;99.90;;;;;;5042474;28;20265;-95
2021/12/18 06:43:42;;;;;;;1.23;1.10;;;3.10;99.90;;;;;;5040811;28;20323;-94
2021/12/18 06:46:13;;;;;;;1.17;1.07;;;3.10;99.90;;;;;;5041606;28;20275;-94
2021/12/18 06:48:44;;;;;;;1.63;1.30;;;3.10;99.90;;;;;;5041176;28;20253;-95
2021/12/18 06:51:17;;;;;;;1.67;1.27;;;3.10;99.90;;;;;;5041454;28;20209;-94
2021/12/18 06:53:48;;;;;;;2.83;1.40;;;3.10;99.90;;;;;;5039753;28;20237;-94
2021/12/18 06:56:20;;;;;;;1.27;1.10;;;3.10;99.90;;;;;;5041609;28;20205;-95
2021/12/18 06:58:54;;;;;;;2.30;1.10;;;3.10;99.90;;;;;;5041011;28;20220;-95
2021/12/18 07:01:25;;;;;;;1.30;1.00;;;3.10;99.90;;;;;;5040009;28;20232;-95
2021/12/18 07:03:56;;;;;;;1.80;1.20;;;3.10;99.90;;;;;;5040635;28;20316;-94
2021/12/18 07:06:30;;;;;;;2.43;1.03;;;3.10;99.90;;;;;;5040260;28;20205;-93
2021/12/18 07:09:01;;;;;;;2.33;1.27;;;3.20;99.90;;;;;;5041108;28;20224;-94
2021/12/18 07:11:33;;;;;;;1.77;1.20;;;3.20;99.90;;;;;;5040421;28;20227;-93
2021/12/18 07:14:08;;;;;;;2.20;1.30;;;3.20;99.90;;;;;;5041083;28;20209;-94
2021/12/18 07:16:39;;;;;;;2.53;1.70;;;3.20;99.90;;;;;;5040124;28;20247;-93
2021/12/18 07:19:10;;;;;;;1.70;1.20;;;3.20;99.90;;;;;;5041223;28;20272;-93
2021/12/18 07:21:42;;;;;;;1.83;0.93;;;3.20;99.90;;;;;;5042137;28;20236;-94
2021/12/18 07:24:13;;;;;;;1.83;1.10;;;3.20;99.90;;;;;;5042295;28;20237;-94
2021/12/18 07:26:44;;;;;;;1.47;1.10;;;3.20;99.90;;;;;;5039724;28;20209;-94
2021/12/18 07:29:17;;;;;;;1.60;1.23;;;3.20;99.90;;;;;;5039349;28;20237;-94
2021/12/18 07:31:48;;;;;;;1.27;1.10;;;3.20;99.90;;;;;;5043917;28;20217;-94
2021/12/18 07:34:19;;;;;;;3.47;1.00;;;3.20;99.90;;;;;;5043732;28;20255;-93
2021/12/18 07:36:51;;;;;;;2.33;1.30;;;3.20;99.90;;;;;;5039428;28;20243;-95
2021/12/18 07:39:22;;;;;;;2.00;0.73;;;3.20;99.90;;;;;;5020600;28;20268;-94
2021/12/18 07:41:53;;;;;;;1.43;1.10;;;3.20;99.90;;;;;;5020360;28;20234;-95
2021/12/18 07:44:26;;;;;;;0.80;0.80;;;3.20;99.90;;;;;;5020721;28;20867;-95
2021/12/18 07:46:57;;;;;;;1.47;1.10;;;3.20;99.90;;;;;;5019858;28;20213;-95
2021/12/18 07:49:28;;;;;;;1.30;1.10;;;3.20;99.90;;;;;;5020686;28;20206;-95
2021/12/18 07:52:02;;;;;;;1.40;1.10;;;3.20;99.90;;;;;;5020749;28;20296;-94
2021/12/18 07:54:35;;;;;;;1.40;1.00;;;3.20;99.90;;;;;;5020568;28;20205;-94
2021/12/18 07:57:06;;;;;;;1.00;0.90;;;3.20;99.90;;;;;;5020032;28;20297;-94
2021/12/18 07:59:40;;;;;;;1.00;0.90;;;3.20;99.90;;;;;;5020567;28;20220;-93
2021/12/18 08:02:12;;;;;;;2.40;1.10;;;3.20;99.90;;;;;;5020128;28;20625;-93
2021/12/18 08:04:43;;;;;;;0.83;0.83;;;3.20;99.90;;;;;;5020840;28;20232;-95
2021/12/18 08:07:14;;;;;;;1.50;1.00;;;3.20;99.90;;;;;;5021187;28;20296;-95
2021/12/18 08:09:45;;;;;;;2.00;0.90;;;3.20;99.90;;;;;;5025915;28;20205;-93
2021/12/18 08:12:16;;;;;;;2.00;0.93;;;3.30;99.90;;;;;;5030681;28;20217;-95
2021/12/18 08:14:49;;;;;;;1.60;0.97;;;3.30;99.90;;;;;;5035011;28;20576;-94
2021/12/18 08:17:19;;;;;;;1.83;1.10;;;3.30;99.90;;;;;;5053886;28;20204;-96
2021/12/18 08:19:52;;;;;;;1.00;0.70;;;3.30;99.90;;;;;;5057917;28;20200;-95
2021/12/18 08:22:23;;;;;;;1.47;1.00;;;3.30;99.90;;;;;;5056951;28;20193;-94
2021/12/18 08:24:54;;;;;;;1.10;1.00;;;3.30;99.90;;;;;;5047164;28;20219;-94
2021/12/18 08:27:25;;;;;;;1.60;1.00;;;3.40;99.90;;;;;;5043682;28;20252;-93
2021/12/18 08:29:59;;;;;;;0.90;0.73;;;3.40;99.90;;;;;;5046217;28;20240;-94
2021/12/18 08:32:29;;;;;;;1.13;0.83;;;3.40;99.90;;;;;;5040570;28;20243;-94
2021/12/18 08:35:01;;;;;;;0.80;0.80;;;3.40;99.90;;;;;;5038342;28;20380;-94
2021/12/18 08:37:31;;;;;;;1.73;0.70;;;3.40;99.90;;;;;;5037931;28;20205;-95
2021/12/18 08:40:03;;;;;;;1.17;1.00;;;3.40;99.90;;;;;;5041667;28;20291;-93
2021/12/18 08:42:34;;;;;;;1.33;0.60;;;3.40;99.90;;;;;;5041718;28;20273;-95
2021/12/18 08:45:09;;;;;;;2.03;0.90;;;3.40;99.90;;;;;;5037987;28;20695;-94
2021/12/18 08:47:41;;;;;;;1.10;0.80;;;3.40;99.90;;;;;;5037106;28;20209;-94
2021/12/18 08:50:17;;;;;;;0.63;0.63;;;3.40;99.90;;;;;;5038610;28;20239;-94
2021/12/18 08:52:50;;;;;;;0.90;0.80;;;3.40;99.90;;;;;;5039527;28;20236;-95
2021/12/18 08:55:23;;;;;;;0.70;0.60;;;3.40;99.90;;;;;;5037459;28;20630;-94
2021/12/18 08:57:54;;;;;;;1.30;0.80;;;3.40;99.90;;;;;;5037462;28;20204;-94
2021/12/18 09:00:30;;;;;;;2.03;0.70;;;3.40;99.90;;;;;;5037780;28;20303;-94
2021/12/18 09:03:01;;;;;;;0.87;0.60;;;3.40;99.90;;;;;;5037925;28;20200;-94
2021/12/18 09:05:33;;;;;;;1.90;0.50;;;3.40;99.90;;;;;;5038778;28;20232;-94
2021/12/18 09:08:04;;;;;;;0.80;0.70;;;3.40;99.90;;;;;;5036673;28;20292;-92
2021/12/18 09:10:36;;;;;;;1.50;0.77;;;3.40;99.90;;;;;;5038125;28;20211;-93
2021/12/18 09:13:07;;;;;;;1.40;0.70;;;3.40;99.90;;;;;;5037460;28;20244;-94
2021/12/18 09:15:40;;;;;;;0.60;0.60;;;3.40;99.90;;;;;;5038950;28;20239;-93
2021/12/18 09:18:11;;;;;;;1.00;0.87;;;3.50;99.90;;;;;;5037678;28;20683;-94
2021/12/18 09:20:44;;;;;;;2.63;0.90;;;3.50;99.90;;;;;;5038057;28;20232;-93
2021/12/18 09:23:17;;;;;;;0.50;0.50;;;3.50;99.90;;;;;;5038526;28;20208;-93
2021/12/18 09:25:48;;;;;;;1.07;0.70;;;3.50;99.90;;;;;;5039523;28;20566;-94
2021/12/18 09:28:19;;;;;;;1.13;0.57;;;3.40;99.90;;;;;;5038626;28;20292;-93
2021/12/18 09:30:53;;;;;;;1.33;0.70;;;3.50;99.90;;;;;;5039405;28;20209;-95
2021/12/18 09:33:25;;;;;;;1.43;0.80;;;3.40;99.90;;;;;;5040192;28;20233;-95
2021/12/18 09:35:56;;;;;;;1.33;0.70;;;3.50;99.90;;;;;;5042446;28;20276;-96
2021/12/18 09:38:27;;;;;;;1.33;0.60;;;3.40;99.90;;;;;;5051159;28;20204;-94
2021/12/18 09:41:00;;;;;;;0.90;0.80;;;3.40;99.90;;;;;;5055481;28;20203;-94
2021/12/18 09:43:31;;;;;;;1.30;0.70;;;3.40;99.90;;;;;;5056051;28;20208;-92
2021/12/18 09:46:09;;;;;;;0.67;0.60;;;3.50;99.90;;;;;;5054530;28;20237;-96
2021/12/18 09:48:42;;;;;;;2.13;0.83;;;3.50;99.90;;;;;;5054687;28;20201;-94
2021/12/18 09:51:23;;;;;;;0.80;0.70;;;3.50;99.90;;;;;;5051312;28;20216;-94
2021/12/18 09:53:54;;;;;;;1.00;0.73;;;3.50;99.90;;;;;;5053794;28;20195;-94
2021/12/18 09:56:27;;;;;;;1.17;0.87;;;3.50;99.90;;;;;;5052381;28;20197;-95
2021/12/18 09:58:59;;;;;;;1.43;1.00;;;3.50;99.90;;;;;;5053321;28;20212;-95
2021/12/18 10:01:32;;;;;;;0.80;0.70;;;3.50;99.90;;;;;;5052260;28;20205;-95
2021/12/18 10:04:05;;;;;;;0.83;0.60;;;3.50;99.90;;;;;;5050881;28;20205;-95
2021/12/18 10:06:40;;;;;;;0.93;0.87;;;3.50;99.90;;;;;;5047362;28;20247;-95
2021/12/18 10:09:13;;;;;;;2.70;0.90;;;3.50;99.90;;;;;;5043903;28;20212;-95
2021/12/18 10:11:49;;;;;;;1.97;0.80;;;3.40;99.90;;;;;;5043468;28;20217;-95
2021/12/18 10:14:21;;;;;;;1.60;0.80;;;3.40;99.90;;;;;;5044063;28;20253;-95
2021/12/18 10:16:55;;;;;;;1.13;0.77;;;3.40;99.90;;;;;;5047582;28;20201;-95
2021/12/18 10:19:29;;;;;;;1.37;0.80;;;3.40;99.90;;;;;;5051562;28;20213;-94
2021/12/18 10:22:02;;;;;;;2.13;0.70;;;3.40;99.90;;;;;;5051446;28;20205;-94
2021/12/18 10:24:35;;;;;;;2.33;0.70;;;3.40;99.90;;;;;;5047325;28;20205;-94
2021/12/18 10:27:18;;;;;;;0.73;0.60;;;3.40;99.90;;;;;;5045511;28;20260;-95
2021/12/18 10:29:51;;;;;;;0.60;0.60;;;3.40;99.90;;;;;;5046599;28;20209;-94
2021/12/18 10:32:26;;;;;;;0.70;0.50;;;3.50;99.90;;;;;;5055665;28;20201;-95
2021/12/18 10:34:59;;;;;;;0.67;0.53;;;3.50;99.90;;;;;;5059322;28;20204;-94
2021/12/18 10:37:31;;;;;;;0.67;0.43;;;3.50;99.90;;;;;;5056800;28;20196;-93
2021/12/18 10:40:08;;;;;;;0.70;0.60;;;3.50;99.90;;;;;;5055511;28;20224;-94
2021/12/18 10:42:41;;;;;;;0.50;0.50;;;3.50;99.90;;;;;;5069082;28;20200;-94
2021/12/18 10:45:23;;;;;;;0.93;0.63;;;3.50;99.90;;;;;;5067268;28;20200;-93
2021/12/18 10:48:03;;;;;;;1.33;0.50;;;3.50;99.90;;;;;;5063906;28;20695;-94
2021/12/18 10:50:38;;;;;;;0.50;0.50;;;3.60;99.90;;;;;;5064245;28;20235;-94
2021/12/18 10:53:13;;;;;;;0.70;0.63;;;3.60;99.90;;;;;;5063133;28;20258;-94
2021/12/18 10:55:48;;;;;;;0.50;0.43;;;3.60;99.90;;;;;;5063280;28;20691;-93
2021/12/18 10:58:23;;;;;;;1.43;0.50;;;3.60;99.90;;;;;;5066226;28;20360;-94
2021/12/18 11:00:57;;;;;;;0.50;0.50;;;3.60;99.90;;;;;;5067157;28;20661;-94
2021/12/18 11:03:38;;;;;;;0.53;0.50;;;3.60;99.90;;;;;;5067683;28;20231;-94
2021/12/18 11:06:16;;;;;;;0.70;0.70;;;3.60;99.90;;;;;;5069633;28;20232;-94
2021/12/18 11:09:08;;;;;;;0.43;0.37;;;3.60;99.90;;;;;;5074175;28;20247;-94
2021/12/18 11:14:41;;;;;;;0.80;0.60;;;3.60;99.90;;;;;;5057995;28;20197;-94
2021/12/18 11:17:14;;;;;;;1.60;0.50;;;3.60;99.90;;;;;;5056045;28;20189;-94
2021/12/18 11:19:47;;;;;;;1.00;0.80;;;3.50;99.90;;;;;;5056269;28;20205;-95
2021/12/18 11:22:18;;;;;;;3.50;0.60;;;3.60;99.90;;;;;;5052087;28;20657;-95
2021/12/18 11:25:03;;;;;;;1.73;0.50;;;3.60;99.90;;;;;;5042040;28;20232;-94
2021/12/18 11:27:36;;;;;;;1.17;0.60;;;3.60;99.90;;;;;;5041118;28;20236;-94
2021/12/18 11:30:10;;;;;;;0.57;0.47;;;3.60;99.90;;;;;;5040862;28;20316;-95
2021/12/18 11:32:44;;;;;;;2.20;0.63;;;3.60;99.90;;;;;;5040292;28;20204;-94
2021/12/18 11:35:19;;;;;;;0.23;0.23;;;3.60;99.90;;;;;;5040377;28;20599;-95
2021/12/18 11:37:53;;;;;;;1.73;0.50;;;3.60;99.90;;;;;;5039990;28;20540;-94
2021/12/18 11:40:27;;;;;;;0.60;0.60;;;3.60;99.90;;;;;;5039457;28;20735;-95
2021/12/18 11:42:59;;;;;;;0.50;0.50;;;3.60;99.90;;;;;;5040459;28;20205;-95
2021/12/18 11:45:34;;;;;;;0.73;0.60;;;3.60;99.90;;;;;;5039938;28;20291;-94
2021/12/18 11:48:06;;;;;;;0.43;0.43;;;3.60;99.90;;;;;;5038858;28;20327;-94
2021/12/18 11:50:41;;;;;;;0.60;0.53;;;3.60;99.90;;;;;;5039077;28;20276;-95
2021/12/18 11:53:14;;;;;;;0.87;0.50;;;3.60;99.90;;;;;;5039256;28;20233;-94
2021/12/18 11:55:59;;;;;;;1.03;1.00;;;3.60;99.90;;;;;;5039343;28;20220;-94
2021/12/18 11:58:32;;;;;;;0.83;0.57;;;3.70;99.90;;;;;;5039674;28;20215;-94
2021/12/18 12:01:06;;;;;;;1.70;0.50;;;3.70;99.90;;;;;;5039314;28;20236;-95
2021/12/18 12:03:42;;;;;;;0.57;0.40;;;3.70;99.90;;;;;;5039723;28;20244;-93
2021/12/18 12:06:28;;;;;;;0.50;0.50;;;3.70;99.90;;;;;;5038293;28;20205;-95
2021/12/18 12:09:27;;;;;;;0.50;0.50;;;3.70;99.90;;;;;;5039069;28;20216;-95
2021/12/18 12:12:00;;;;;;;0.70;0.40;;;3.70;99.90;;;;;;5038950;28;20201;-95
2021/12/18 12:14:32;;;;;;;1.70;0.47;;;3.70;99.90;;;;;;5039186;28;20240;-94
2021/12/18 12:17:25;;;;;;;0.37;0.30;;;3.70;99.90;;;;;;5043143;28;20213;-95
2021/12/18 12:19:59;;;;;;;0.63;0.50;;;3.70;99.90;;;;;;5040045;28;20288;-94
2021/12/18 12:22:47;;;;;;;2.40;0.90;;;3.70;99.90;;;;;;5039770;28;20264;-94
2021/12/18 12:25:33;;;;;;;0.57;0.50;;;3.80;99.90;;;;;;5039764;28;20245;-94
2021/12/18 12:28:06;;;;;;;2.60;0.60;;;3.80;99.90;;;;;;5038964;28;20601;-94
2021/12/18 12:30:43;;;;;;;0.70;0.70;;;3.80;99.90;;;;;;5040016;28;20278;-94
2021/12/18 12:33:26;;;;;;;0.40;0.40;;;3.70;99.90;;;;;;5039896;28;20249;-94
2021/12/18 12:36:14;;;;;;;0.40;0.40;;;3.80;99.90;;;;;;5039191;28;20215;-94
2021/12/18 12:38:57;;;;;;;3.63;1.07;;;3.80;99.90;;;;;;5038332;28;20256;-93
2021/12/18 12:41:37;;;;;;;2.20;0.77;;;3.80;99.90;;;;;;5040110;28;20630;-93
2021/12/18 12:44:17;;;;;;;0.87;0.60;;;3.80;99.90;;;;;;5039985;28;20200;-95
2021/12/18 12:46:48;;;;;;;0.80;0.60;;;3.70;99.90;;;;;;5043152;28;20267;-94
2021/12/18 12:49:22;;;;;;;2.70;0.73;;;3.80;99.90;;;;;;5056228;28;20200;-94
2021/12/18 12:52:16;;;;;;;1.00;0.50;;;3.70;99.90;;;;;;5055642;28;20209;-94
2021/12/18 12:54:55;;;;;;;1.90;0.60;;;3.60;99.90;;;;;;5046138;28;20224;-94
2021/12/18 12:57:43;;;;;;;0.93;0.70;;;3.70;99.90;;;;;;5043812;28;20593;-94
2021/12/18 13:00:38;;;;;;;1.33;0.60;;;3.70;99.90;;;;;;5045089;28;20287;-93
2021/12/18 13:03:13;;;;;;;0.57;0.40;;;3.70;99.90;;;;;;5060085;28;20199;-94
2021/12/18 13:05:59;;;;;;;0.60;0.53;;;3.70;99.90;;;;;;5057113;28;20258;-94
2021/12/18 13:08:35;;;;;;;0.60;0.50;;;3.70;99.90;;;;;;5057640;28;20330;-94
2021/12/18 13:11:09;;;;;;;0.40;0.40;;;3.70;99.90;;;;;;5049681;28;20631;-94
2021/12/18 13:13:41;;;;;;;0.60;0.60;;;3.70;99.90;;;;;;5037530;28;20291;-93
2021/12/18 13:16:14;;;;;;;0.50;0.50;;;3.70;99.90;;;;;;5036664;28;20247;-94
2021/12/18 13:18:47;;;;;;;0.53;0.53;;;3.70;99.90;;;;;;5037413;28;20724;-93
2021/12/18 13:21:31;;;;;;;1.40;0.57;;;3.70;99.90;;;;;;5037063;28;20216;-96
2021/12/18 13:24:03;;;;;;;0.93;0.57;;;3.70;99.90;;;;;;5042081;28;20576;-93
2021/12/18 13:26:37;;;;;;;0.83;0.40;;;3.80;99.90;;;;;;5038367;28;20263;-94
2021/12/18 13:29:11;;;;;;;0.57;0.40;;;3.70;99.90;;;;;;5039062;28;20311;-95
2021/12/18 13:31:49;;;;;;;0.40;0.33;;;3.80;99.90;;;;;;5040577;28;20200;-95
2021/12/18 13:34:22;;;;;;;1.33;0.40;;;3.70;99.90;;;;;;5040135;28;20200;-96
2021/12/18 13:36:56;;;;;;;1.07;0.50;;;3.80;99.90;;;;;;5020462;28;20220;-95
2021/12/18 13:39:31;;;;;;;5.03;1.27;;;3.70;99.90;;;;;;5018591;28;20205;-95
2021/12/18 13:42:18;;;;;;;16.73;1.00;;;3.80;99.90;;;;;;5017948;28;20212;-95
2021/12/18 13:44:53;;;;;;;0.70;0.50;;;3.70;99.90;;;;;;5018172;28;20209;-94
2021/12/18 13:47:27;;;;;;;1.67;0.50;;;3.80;99.90;;;;;;5016518;28;20228;-94
2021/12/18 13:50:05;;;;;;;0.40;0.40;;;3.80;99.90;;;;;;5022150;28;20527;-95
2021/12/18 13:52:45;;;;;;;0.40;0.40;;;3.70;99.90;;;;;;5023447;28;20205;-95
2021/12/18 13:55:32;;;;;;;0.30;0.30;;;3.80;99.90;;;;;;5021002;28;20212;-93
2021/12/18 13:58:14;;;;;;;0.30;0.30;;;3.80;99.90;;;;;;5020932;28;20240;-94
2021/12/18 14:01:07;;;;;;;0.43;0.43;;;3.80;99.90;;;;;;5021417;28;20205;-95
2021/12/18 14:03:41;;;;;;;0.23;0.23;;;3.80;99.90;;;;;;5018598;28;20244;-95
2021/12/18 14:06:17;;;;;;;0.87;0.40;;;3.80;99.90;;;;;;5020539;28;20204;-95
2021/12/18 14:08:51;;;;;;;0.40;0.40;;;3.80;99.90;;;;;;5021367;28;20605;-95